sensor_id;sensor_type;location;lat;lon;timestamp;pressure;altitude;pressure_sealevel;temperature;humidity
70684;BME280;58263;48.146;11.440;2022-07-29T00:01:14;95604.41;;;22.02;55.49
70684;BME280;58263;48.146;11.440;2022-07-29T00:03:40;95605.47;;;21.92;55.59
70684;BME280;58263;48.146;11.440;2022-07-29T00:06:05;95599.19;;;21.91;55.72
70684;BME280;58263;48.146;11.440;2022-07-29T00:08:31;95599.09;;;21.97;56.05
70684;BME280;58263;48.146;11.440;2022-07-29T00:10:56;95603.56;;;21.92;56.68
70684;BME280;58263;48.146;11.440;2022-07-29T00:13:21;95607.72;;;21.90;56.76
70684;BME280;58263;48.146;11.440;2022-07-29T00:15:47;95600.44;;;21.71;57.23
70684;BME280;58263;48.146;11.440;2022-07-29T00:18:12;95593.94;;;21.81;57.69
70684;BME280;58263;48.146;11.440;2022-07-29T00:20:37;95595.19;;;21.75;58.05
70684;BME280;58263;48.146;11.440;2022-07-29T00:23:03;95591.94;;;21.73;57.86
70684;BME280;58263;48.146;11.440;2022-07-29T00:25:28;95596.78;;;21.76;57.95
70684;BME280;58263;48.146;11.440;2022-07-29T00:27:53;95589.94;;;21.65;58.30
70684;BME280;58263;48.146;11.440;2022-07-29T00:30:18;95595.19;;;21.75;57.95
70684;BME280;58263;48.146;11.440;2022-07-29T00:32:44;95583.84;;;21.68;57.91
70684;BME280;58263;48.146;11.440;2022-07-29T00:35:09;95589.53;;;21.71;57.18
70684;BME280;58263;48.146;11.440;2022-07-29T00:37:53;95583.69;;;21.64;57.71
70684;BME280;58263;48.146;11.440;2022-07-29T00:40:19;95585.09;;;21.61;57.68
70684;BME280;58263;48.146;11.440;2022-07-29T00:42:49;95574.06;;;21.67;57.98
70684;BME280;58263;48.146;11.440;2022-07-29T00:45:16;95578.63;;;21.57;58.47
70684;BME280;58263;48.146;11.440;2022-07-29T00:47:41;95583.69;;;21.64;58.06
70684;BME280;58263;48.146;11.440;2022-07-29T00:50:09;95579.63;;;21.61;57.89
70684;BME280;58263;48.146;11.440;2022-07-29T00:52:36;95576.28;;;21.65;57.81
70684;BME280;58263;48.146;11.440;2022-07-29T00:55:04;95568.31;;;21.54;56.85
70684;BME280;58263;48.146;11.440;2022-07-29T00:57:29;95565.28;;;21.42;56.31
70684;BME280;58263;48.146;11.440;2022-07-29T00:59:55;95557.91;;;21.56;56.12
70684;BME280;58263;48.146;11.440;2022-07-29T01:02:21;95559.09;;;21.50;55.64
70684;BME280;58263;48.146;11.440;2022-07-29T01:04:46;95548.66;;;21.52;54.86
70684;BME280;58263;48.146;11.440;2022-07-29T01:07:11;95544.84;;;21.67;55.21
70684;BME280;58263;48.146;11.440;2022-07-29T01:09:38;95547.88;;;21.66;54.39
70684;BME280;58263;48.146;11.440;2022-07-29T01:12:04;95546.06;;;21.61;54.12
70684;BME280;58263;48.146;11.440;2022-07-29T01:14:30;95552.53;;;21.65;54.70
70684;BME280;58263;48.146;11.440;2022-07-29T01:17:10;95547.88;;;21.66;54.96
70684;BME280;58263;48.146;11.440;2022-07-29T01:19:45;95552.81;;;21.64;55.59
70684;BME280;58263;48.146;11.440;2022-07-29T01:25:32;95554.69;;;21.54;56.05
70684;BME280;58263;48.146;11.440;2022-07-29T01:30:55;95546.50;;;21.54;56.53
70684;BME280;58263;48.146;11.440;2022-07-29T01:33:24;95542.03;;;21.58;56.88
70684;BME280;58263;48.146;11.440;2022-07-29T01:36:15;95538.38;;;21.49;55.43
70684;BME280;58263;48.146;11.440;2022-07-29T01:38:42;95535.97;;;21.48;55.12
70684;BME280;58263;48.146;11.440;2022-07-29T01:41:09;95543.22;;;21.52;55.48
70684;BME280;58263;48.146;11.440;2022-07-29T01:43:41;95541.03;;;21.54;55.21
70684;BME280;58263;48.146;11.440;2022-07-29T01:46:13;95533.34;;;21.56;55.20
70684;BME280;58263;48.146;11.440;2022-07-29T01:48:46;95540.63;;;21.61;54.52
70684;BME280;58263;48.146;11.440;2022-07-29T01:51:25;95541.22;;;21.58;55.04
70684;BME280;58263;48.146;11.440;2022-07-29T01:54:04;95538.78;;;21.56;55.51
70684;BME280;58263;48.146;11.440;2022-07-29T01:56:32;95537.69;;;21.57;55.70
70684;BME280;58263;48.146;11.440;2022-07-29T01:59:01;95536.13;;;21.51;54.51
70684;BME280;58263;48.146;11.440;2022-07-29T02:01:29;95530.91;;;21.55;55.55
70684;BME280;58263;48.146;11.440;2022-07-29T02:03:56;95526.25;;;21.55;54.98
70684;BME280;58263;48.146;11.440;2022-07-29T02:06:23;95522.72;;;21.55;55.10
70684;BME280;58263;48.146;11.440;2022-07-29T02:08:49;95524.66;;;21.54;55.60
70684;BME280;58263;48.146;11.440;2022-07-29T02:11:16;95525.22;;;21.51;55.10
70684;BME280;58263;48.146;11.440;2022-07-29T02:13:42;95519.88;;;21.46;55.08
70684;BME280;58263;48.146;11.440;2022-07-29T02:16:09;95521.78;;;21.45;54.47
70684;BME280;58263;48.146;11.440;2022-07-29T02:18:41;95524.34;;;21.42;54.21
70684;BME280;58263;48.146;11.440;2022-07-29T02:21:09;95516.75;;;21.39;53.75
70684;BME280;58263;48.146;11.440;2022-07-29T02:23:35;95505.34;;;21.37;54.01
70684;BME280;58263;48.146;11.440;2022-07-29T02:26:02;95501.31;;;21.34;54.51
70684;BME280;58263;48.146;11.440;2022-07-29T02:28:29;95509.28;;;21.31;54.87
70684;BME280;58263;48.146;11.440;2022-07-29T02:30:58;95508.97;;;21.32;54.61
70684;BME280;58263;48.146;11.440;2022-07-29T02:33:25;95513.63;;;21.32;55.62
70684;BME280;58263;48.146;11.440;2022-07-29T02:35:51;95509.28;;;21.31;55.87
70684;BME280;58263;48.146;11.440;2022-07-29T02:38:17;95515.97;;;21.24;55.98
70684;BME280;58263;48.146;11.440;2022-07-29T02:41:05;95509.50;;;21.20;55.87
70684;BME280;58263;48.146;11.440;2022-07-29T02:43:33;95508.09;;;21.23;56.00
70684;BME280;58263;48.146;11.440;2022-07-29T02:46:02;95499.41;;;21.21;56.11
70684;BME280;58263;48.146;11.440;2022-07-29T02:48:37;95496.75;;;21.16;56.05
70684;BME280;58263;48.146;11.440;2022-07-29T02:51:19;95498.69;;;21.15;56.22
70684;BME280;58263;48.146;11.440;2022-07-29T02:53:49;95505.25;;;21.14;56.51
70684;BME280;58263;48.146;11.440;2022-07-29T02:56:17;95490.72;;;21.05;56.39
70684;BME280;58263;48.146;11.440;2022-07-29T02:58:47;95491.00;;;21.03;56.73
70684;BME280;58263;48.146;11.440;2022-07-29T03:01:22;95501.63;;;21.05;56.64
70684;BME280;58263;48.146;11.440;2022-07-29T03:03:50;95491.00;;;21.03;56.94
70684;BME280;58263;48.146;11.440;2022-07-29T03:06:18;95489.22;;;20.99;57.16
70684;BME280;58263;48.146;11.440;2022-07-29T03:08:44;95490.09;;;20.94;56.95
70684;BME280;58263;48.146;11.440;2022-07-29T03:11:11;95491.63;;;20.86;57.12
70684;BME280;58263;48.146;11.440;2022-07-29T03:13:37;95488.09;;;20.86;57.53
70684;BME280;58263;48.146;11.440;2022-07-29T03:16:04;95487.28;;;20.85;57.34
70684;BME280;58263;48.146;11.440;2022-07-29T03:18:30;95480.22;;;20.84;57.09
70684;BME280;58263;48.146;11.440;2022-07-29T03:20:56;95492.53;;;20.82;57.22
70684;BME280;58263;48.146;11.440;2022-07-29T03:23:22;95492.13;;;20.74;57.73
70684;BME280;58263;48.146;11.440;2022-07-29T03:25:52;95488.38;;;20.70;57.84
70684;BME280;58263;48.146;11.440;2022-07-29T03:28:18;95494.41;;;20.67;57.45
70684;BME280;58263;48.146;11.440;2022-07-29T03:30:44;95498.03;;;20.63;57.75
70684;BME280;58263;48.146;11.440;2022-07-29T03:33:10;95499.75;;;20.58;57.66
70684;BME280;58263;48.146;11.440;2022-07-29T03:35:35;95494.09;;;20.55;57.71
70684;BME280;58263;48.146;11.440;2022-07-29T03:38:01;95499.94;;;20.48;58.30
70684;BME280;58263;48.146;11.440;2022-07-29T03:40:31;95504.94;;;20.41;58.80
70684;BME280;58263;48.146;11.440;2022-07-29T03:42:59;95499.31;;;20.37;58.96
70684;BME280;58263;48.146;11.440;2022-07-29T03:45:26;95505.56;;;20.38;58.69
70684;BME280;58263;48.146;11.440;2022-07-29T03:47:55;95507.19;;;20.39;58.68
70684;BME280;58263;48.146;11.440;2022-07-29T03:50:22;95504.47;;;20.39;58.66
70684;BME280;58263;48.146;11.440;2022-07-29T03:52:48;95505.22;;;20.25;58.90
70684;BME280;58263;48.146;11.440;2022-07-29T03:55:14;95501.91;;;20.29;58.97
70684;BME280;58263;48.146;11.440;2022-07-29T03:57:41;95503.81;;;20.28;59.20
70684;BME280;58263;48.146;11.440;2022-07-29T04:00:08;95504.13;;;20.26;59.00
70684;BME280;58263;48.146;11.440;2022-07-29T04:02:33;95508.56;;;20.22;59.31
70684;BME280;58263;48.146;11.440;2022-07-29T04:04:59;95508.13;;;20.15;59.06
70684;BME280;58263;48.146;11.440;2022-07-29T04:07:24;95515.97;;;20.03;59.98
70684;BME280;58263;48.146;11.440;2022-07-29T04:09:50;95507.50;;;20.04;60.10
70684;BME280;58263;48.146;11.440;2022-07-29T04:12:15;95518.69;;;20.03;60.66
70684;BME280;58263;48.146;11.440;2022-07-29T04:14:41;95513.13;;;20.08;60.77
70684;BME280;58263;48.146;11.440;2022-07-29T04:17:06;95513.78;;;20.19;60.48
70684;BME280;58263;48.146;11.440;2022-07-29T04:19:32;95516.19;;;20.20;60.44
70684;BME280;58263;48.146;11.440;2022-07-29T04:21:58;95519.03;;;20.15;60.67
70684;BME280;58263;48.146;11.440;2022-07-29T04:24:24;95516.66;;;20.27;60.70
70684;BME280;58263;48.146;11.440;2022-07-29T04:26:50;95519.06;;;20.29;61.22
70684;BME280;58263;48.146;11.440;2022-07-29T04:29:15;95535.91;;;20.31;61.00
70684;BME280;58263;48.146;11.440;2022-07-29T04:31:41;95539.06;;;20.38;61.79
70684;BME280;58263;48.146;11.440;2022-07-29T04:34:07;95535.81;;;20.36;62.22
70684;BME280;58263;48.146;11.440;2022-07-29T04:36:32;95534.84;;;20.46;62.05
70684;BME280;58263;48.146;11.440;2022-07-29T04:38:58;95536.25;;;20.43;62.68
70684;BME280;58263;48.146;11.440;2022-07-29T04:41:23;95540.28;;;20.46;62.96
70684;BME280;58263;48.146;11.440;2022-07-29T04:43:49;95537.06;;;20.44;63.23
70684;BME280;58263;48.146;11.440;2022-07-29T04:46:14;95537.44;;;20.37;63.52
70684;BME280;58263;48.146;11.440;2022-07-29T04:48:39;95541.63;;;20.49;63.56
70684;BME280;58263;48.146;11.440;2022-07-29T04:51:05;95545.81;;;20.41;63.68
70684;BME280;58263;48.146;11.440;2022-07-29T04:53:30;95542.72;;;20.48;63.12
70684;BME280;58263;48.146;11.440;2022-07-29T04:55:55;95548.91;;;20.53;62.64
70684;BME280;58263;48.146;11.440;2022-07-29T04:58:21;95548.09;;;20.53;63.10
70684;BME280;58263;48.146;11.440;2022-07-29T05:00:48;95551.50;;;20.44;63.66
70684;BME280;58263;48.146;11.440;2022-07-29T05:03:14;95551.19;;;20.46;63.14
70684;BME280;58263;48.146;11.440;2022-07-29T05:05:39;95546.88;;;20.45;63.53
70684;BME280;58263;48.146;11.440;2022-07-29T05:08:06;95552.81;;;20.47;63.53
70684;BME280;58263;48.146;11.440;2022-07-29T05:10:31;95556.25;;;20.53;62.41
70684;BME280;58263;48.146;11.440;2022-07-29T05:12:57;95559.50;;;20.55;62.61
70684;BME280;58263;48.146;11.440;2022-07-29T05:15:23;95561.50;;;20.49;63.12
70684;BME280;58263;48.146;11.440;2022-07-29T05:17:48;95561.50;;;20.49;62.77
70684;BME280;58263;48.146;11.440;2022-07-29T05:20:14;95569.28;;;20.56;62.41
70684;BME280;58263;48.146;11.440;2022-07-29T05:22:39;95568.59;;;20.64;62.82
70684;BME280;58263;48.146;11.440;2022-07-29T05:25:05;95569.13;;;20.66;63.94
70684;BME280;58263;48.146;11.440;2022-07-29T05:27:30;95571.53;;;20.68;63.55
70684;BME280;58263;48.146;11.440;2022-07-29T05:29:56;95562.03;;;20.65;63.63
70684;BME280;58263;48.146;11.440;2022-07-29T05:32:21;95568.81;;;20.68;63.85
70684;BME280;58263;48.146;11.440;2022-07-29T05:34:46;95577.16;;;20.76;63.41
70684;BME280;58263;48.146;11.440;2022-07-29T05:37:12;95573.53;;;20.81;62.82
70684;BME280;58263;48.146;11.440;2022-07-29T05:39:38;95574.00;;;20.83;62.26
70684;BME280;58263;48.146;11.440;2022-07-29T05:42:10;95576.16;;;20.86;62.30
70684;BME280;58263;48.146;11.440;2022-07-29T05:44:37;95576.47;;;20.85;62.25
70684;BME280;58263;48.146;11.440;2022-07-29T05:47:02;95576.72;;;20.83;61.86
70684;BME280;58263;48.146;11.440;2022-07-29T05:49:28;95576.56;;;20.93;62.33
70684;BME280;58263;48.146;11.440;2022-07-29T05:51:53;95572.66;;;21.14;61.72
70684;BME280;58263;48.146;11.440;2022-07-29T05:54:19;95580.94;;;21.22;61.02
70684;BME280;58263;48.146;11.440;2022-07-29T05:56:44;95573.97;;;21.16;60.47
70684;BME280;58263;48.146;11.440;2022-07-29T05:59:09;95572.25;;;21.34;60.98
70684;BME280;58263;48.146;11.440;2022-07-29T06:01:34;95572.97;;;21.54;59.89
70684;BME280;58263;48.146;11.440;2022-07-29T06:04:04;95573.47;;;21.42;59.72
70684;BME280;58263;48.146;11.440;2022-07-29T06:06:29;95573.56;;;21.65;60.11
70684;BME280;58263;48.146;11.440;2022-07-29T06:08:55;95572.53;;;21.74;58.85
70684;BME280;58263;48.146;11.440;2022-07-29T06:11:20;95580.41;;;21.76;57.85
70684;BME280;58263;48.146;11.440;2022-07-29T06:13:45;95573.94;;;21.86;58.07
70684;BME280;58263;48.146;11.440;2022-07-29T06:16:10;95567.91;;;21.98;58.27
70684;BME280;58263;48.146;11.440;2022-07-29T06:18:36;95575.25;;;22.11;57.78
70684;BME280;58263;48.146;11.440;2022-07-29T06:21:01;95573.00;;;22.27;57.36
70684;BME280;58263;48.146;11.440;2022-07-29T06:23:31;95582.97;;;22.09;56.62
70684;BME280;58263;48.146;11.440;2022-07-29T06:25:57;95579.06;;;22.38;56.63
70684;BME280;58263;48.146;11.440;2022-07-29T06:28:22;95574.03;;;22.54;56.25
70684;BME280;58263;48.146;11.440;2022-07-29T06:30:48;95579.09;;;22.69;55.92
70684;BME280;58263;48.146;11.440;2022-07-29T06:33:17;95579.00;;;22.83;55.54
70684;BME280;58263;48.146;11.440;2022-07-29T06:35:43;95588.75;;;22.98;54.92
70684;BME280;58263;48.146;11.440;2022-07-29T06:38:09;95587.19;;;23.06;54.47
70684;BME280;58263;48.146;11.440;2022-07-29T06:40:36;95593.06;;;23.22;53.91
70684;BME280;58263;48.146;11.440;2022-07-29T06:43:20;95597.31;;;23.37;53.54
70684;BME280;58263;48.146;11.440;2022-07-29T06:45:45;95594.28;;;23.47;52.72
70684;BME280;58263;48.146;11.440;2022-07-29T06:48:11;95597.16;;;23.42;51.87
70684;BME280;58263;48.146;11.440;2022-07-29T06:50:36;95601.59;;;23.60;51.33
70684;BME280;58263;48.146;11.440;2022-07-29T06:53:02;95596.16;;;23.78;50.80
70684;BME280;58263;48.146;11.440;2022-07-29T06:55:28;95603.66;;;24.04;50.34
70684;BME280;58263;48.146;11.440;2022-07-29T06:57:53;95605.25;;;24.05;49.08
70684;BME280;58263;48.146;11.440;2022-07-29T07:00:18;95605.28;;;24.31;48.88
70684;BME280;58263;48.146;11.440;2022-07-29T07:02:44;95609.47;;;24.28;48.48
70684;BME280;58263;48.146;11.440;2022-07-29T07:05:09;95609.47;;;24.28;49.20
70684;BME280;58263;48.146;11.440;2022-07-29T07:07:34;95608.34;;;24.64;49.24
70684;BME280;58263;48.146;11.440;2022-07-29T07:10:00;95607.69;;;24.76;46.21
70684;BME280;58263;48.146;11.440;2022-07-29T07:12:25;95608.44;;;24.94;46.78
70684;BME280;58263;48.146;11.440;2022-07-29T07:14:50;95601.31;;;25.11;46.57
70684;BME280;58263;48.146;11.440;2022-07-29T07:17:16;95609.97;;;25.30;47.01
70684;BME280;58263;48.146;11.440;2022-07-29T07:19:41;95610.41;;;25.50;46.68
70684;BME280;58263;48.146;11.440;2022-07-29T07:22:06;95606.13;;;25.61;45.14
70684;BME280;58263;48.146;11.440;2022-07-29T07:24:32;95601.78;;;25.60;45.57
70684;BME280;58263;48.146;11.440;2022-07-29T07:26:57;95605.28;;;25.70;44.85
70684;BME280;58263;48.146;11.440;2022-07-29T07:29:22;95600.38;;;25.84;44.39
70684;BME280;58263;48.146;11.440;2022-07-29T07:31:48;95599.16;;;25.94;42.75
70684;BME280;58263;48.146;11.440;2022-07-29T07:34:13;95603.31;;;25.79;42.12
70684;BME280;58263;48.146;11.440;2022-07-29T07:36:38;95599.88;;;26.12;43.73
70684;BME280;58263;48.146;11.440;2022-07-29T07:39:04;95596.94;;;26.38;42.59
70684;BME280;58263;48.146;11.440;2022-07-29T07:41:30;95596.88;;;26.47;41.12
70684;BME280;58263;48.146;11.440;2022-07-29T07:43:56;95597.59;;;26.56;41.08
70684;BME280;58263;48.146;11.440;2022-07-29T07:46:21;95600.34;;;26.77;41.37
70684;BME280;58263;48.146;11.440;2022-07-29T07:48:46;95599.44;;;26.86;40.65
70684;BME280;58263;48.146;11.440;2022-07-29T07:51:12;95601.66;;;27.05;40.98
70684;BME280;58263;48.146;11.440;2022-07-29T07:53:37;95595.75;;;27.15;40.73
70684;BME280;58263;48.146;11.440;2022-07-29T07:56:02;95595.19;;;27.22;41.04
70684;BME280;58263;48.146;11.440;2022-07-29T07:58:29;95597.41;;;27.41;39.93
70684;BME280;58263;48.146;11.440;2022-07-29T08:00:54;95600.63;;;27.43;39.36
70684;BME280;58263;48.146;11.440;2022-07-29T08:03:20;95605.34;;;27.67;40.76
70684;BME280;58263;48.146;11.440;2022-07-29T08:05:45;95610.28;;;27.86;40.06
70684;BME280;58263;48.146;11.440;2022-07-29T08:08:11;95612.31;;;28.14;40.63
70684;BME280;58263;48.146;11.440;2022-07-29T08:10:37;95607.13;;;28.25;39.04
70684;BME280;58263;48.146;11.440;2022-07-29T08:13:19;95610.75;;;28.41;39.11
70684;BME280;58263;48.146;11.440;2022-07-29T08:15:44;95608.91;;;28.45;38.53
70684;BME280;58263;48.146;11.440;2022-07-29T08:18:11;95608.78;;;28.54;38.32
70684;BME280;58263;48.146;11.440;2022-07-29T08:20:37;95598.63;;;28.71;39.37
70684;BME280;58263;48.146;11.440;2022-07-29T08:23:05;95595.66;;;28.92;38.52
70684;BME280;58263;48.146;11.440;2022-07-29T08:25:32;95609.31;;;29.00;39.02
70684;BME280;58263;48.146;11.440;2022-07-29T08:27:58;95601.38;;;29.27;37.52
70684;BME280;58263;48.146;11.440;2022-07-29T08:30:23;95603.50;;;29.50;37.56
70684;BME280;58263;48.146;11.440;2022-07-29T08:32:48;95605.00;;;29.63;36.12
70684;BME280;58263;48.146;11.440;2022-07-29T08:35:18;95601.19;;;29.52;34.81
70684;BME280;58263;48.146;11.440;2022-07-29T08:37:43;95602.25;;;29.63;35.85
70684;BME280;58263;48.146;11.440;2022-07-29T08:40:09;95603.13;;;29.67;36.64
70684;BME280;58263;48.146;11.440;2022-07-29T08:42:35;95606.53;;;29.45;36.90
70684;BME280;58263;48.146;11.440;2022-07-29T08:45:00;95601.19;;;29.36;36.90
70684;BME280;58263;48.146;11.440;2022-07-29T08:47:27;95603.66;;;29.25;36.85
70684;BME280;58263;48.146;11.440;2022-07-29T08:49:52;95614.22;;;29.07;36.72
70684;BME280;58263;48.146;11.440;2022-07-29T08:52:18;95613.56;;;28.98;37.78
70684;BME280;58263;48.146;11.440;2022-07-29T08:54:45;95613.03;;;28.92;37.83
70684;BME280;58263;48.146;11.440;2022-07-29T08:57:13;95619.47;;;28.96;38.12
70684;BME280;58263;48.146;11.440;2022-07-29T08:59:41;95628.41;;;29.06;37.69
70684;BME280;58263;48.146;11.440;2022-07-29T09:02:14;95618.84;;;29.03;37.33
70684;BME280;58263;48.146;11.440;2022-07-29T09:04:41;95621.06;;;28.97;38.10
70684;BME280;58263;48.146;11.440;2022-07-29T09:07:06;95623.13;;;29.00;38.26
70684;BME280;58263;48.146;11.440;2022-07-29T09:09:33;95621.56;;;28.87;37.46
70684;BME280;58263;48.146;11.440;2022-07-29T09:11:59;95627.22;;;29.07;38.49
70684;BME280;58263;48.146;11.440;2022-07-29T09:14:24;95630.94;;;29.27;38.21
70684;BME280;58263;48.146;11.440;2022-07-29T09:16:55;95619.09;;;29.42;37.48
70684;BME280;58263;48.146;11.440;2022-07-29T09:19:29;95613.38;;;29.35;37.28
70684;BME280;58263;48.146;11.440;2022-07-29T09:21:57;95612.06;;;29.29;37.47
70684;BME280;58263;48.146;11.440;2022-07-29T09:24:24;95616.00;;;29.44;38.00
70684;BME280;58263;48.146;11.440;2022-07-29T09:26:50;95613.84;;;29.69;37.68
70684;BME280;58263;48.146;11.440;2022-07-29T09:29:17;95610.59;;;29.83;36.51
70684;BME280;58263;48.146;11.440;2022-07-29T09:31:44;95620.72;;;29.75;35.90
70684;BME280;58263;48.146;11.440;2022-07-29T09:34:13;95611.53;;;29.55;37.50
70684;BME280;58263;48.146;11.440;2022-07-29T09:36:46;95616.09;;;29.19;37.28
70684;BME280;58263;48.146;11.440;2022-07-29T09:39:13;95611.59;;;28.98;38.12
70684;BME280;58263;48.146;11.440;2022-07-29T09:41:51;95616.03;;;28.87;38.93
70684;BME280;58263;48.146;11.440;2022-07-29T09:44:24;95610.38;;;28.67;38.92
70684;BME280;58263;48.146;11.440;2022-07-29T09:46:57;95615.91;;;28.67;38.49
70684;BME280;58263;48.146;11.440;2022-07-29T09:49:23;95615.00;;;28.51;39.58
70684;BME280;58263;48.146;11.440;2022-07-29T09:52:09;95616.19;;;28.38;39.69
70684;BME280;58263;48.146;11.440;2022-07-29T09:54:36;95616.63;;;28.40;39.72
70684;BME280;58263;48.146;11.440;2022-07-29T09:57:03;95616.22;;;28.25;39.74
70684;BME280;58263;48.146;11.440;2022-07-29T09:59:29;95610.75;;;28.13;39.41
70684;BME280;58263;48.146;11.440;2022-07-29T10:01:55;95607.28;;;28.16;39.86
70684;BME280;58263;48.146;11.440;2022-07-29T10:04:21;95618.09;;;28.21;40.98
70684;BME280;58263;48.146;11.440;2022-07-29T10:07:00;95602.31;;;28.22;40.16
70684;BME280;58263;48.146;11.440;2022-07-29T10:09:26;95601.25;;;28.39;40.34
70684;BME280;58263;48.146;11.440;2022-07-29T10:12:08;95607.44;;;28.36;39.75
70684;BME280;58263;48.146;11.440;2022-07-29T10:14:35;95602.66;;;28.32;39.71
70684;BME280;58263;48.146;11.440;2022-07-29T10:17:00;95611.69;;;28.45;39.92
70684;BME280;58263;48.146;11.440;2022-07-29T10:19:29;95603.38;;;28.70;40.02
70684;BME280;58263;48.146;11.440;2022-07-29T10:21:59;95616.03;;;28.87;40.74
70684;BME280;58263;48.146;11.440;2022-07-29T10:24:26;95602.28;;;28.75;39.92
70684;BME280;58263;48.146;11.440;2022-07-29T10:26:54;95605.31;;;28.70;39.48
70684;BME280;58263;48.146;11.440;2022-07-29T10:29:20;95604.28;;;28.90;39.85
70684;BME280;58263;48.146;11.440;2022-07-29T10:34:50;95596.63;;;29.28;39.95
70684;BME280;58263;48.146;11.440;2022-07-29T10:43:17;95594.78;;;29.48;38.54
70684;BME280;58263;48.146;11.440;2022-07-29T10:45:46;95598.88;;;29.86;38.17
70684;BME280;58263;48.146;11.440;2022-07-29T10:48:13;95595.53;;;30.32;36.80
70684;BME280;58263;48.146;11.440;2022-07-29T10:50:56;95587.56;;;30.46;36.55
70684;BME280;58263;48.146;11.440;2022-07-29T10:53:48;95582.66;;;30.40;35.85
70684;BME280;58263;48.146;11.440;2022-07-29T10:56:25;95586.31;;;30.63;36.97
70684;BME280;58263;48.146;11.440;2022-07-29T11:01:49;95579.34;;;31.35;33.63
70684;BME280;58263;48.146;11.440;2022-07-29T11:09:29;95576.69;;;31.89;31.50
70684;BME280;58263;48.146;11.440;2022-07-29T11:11:56;95579.56;;;31.96;32.54
70684;BME280;58263;48.146;11.440;2022-07-29T11:14:59;95579.19;;;31.98;30.85
70684;BME280;58263;48.146;11.440;2022-07-29T11:17:26;95582.25;;;32.16;32.28
70684;BME280;58263;48.146;11.440;2022-07-29T11:20:30;95580.28;;;32.16;31.89
70684;BME280;58263;48.146;11.440;2022-07-29T11:22:56;95578.19;;;31.83;31.11
70684;BME280;58263;48.146;11.440;2022-07-29T11:25:22;95577.69;;;32.04;28.31
70684;BME280;58263;48.146;11.440;2022-07-29T11:27:47;95570.53;;;32.60;27.94
70684;BME280;58263;48.146;11.440;2022-07-29T11:30:13;95574.13;;;33.36;29.06
70684;BME280;58263;48.146;11.440;2022-07-29T11:32:43;95570.63;;;33.43;28.23
70684;BME280;58263;48.146;11.440;2022-07-29T11:37:46;95564.06;;;33.65;27.69
70684;BME280;58263;48.146;11.440;2022-07-29T11:40:13;95558.03;;;33.56;27.73
70684;BME280;58263;48.146;11.440;2022-07-29T11:42:40;95567.63;;;33.66;28.28
70684;BME280;58263;48.146;11.440;2022-07-29T11:45:19;95565.13;;;33.50;28.02
70684;BME280;58263;48.146;11.440;2022-07-29T11:50:13;95571.28;;;32.88;29.31
70684;BME280;58263;48.146;11.440;2022-07-29T11:52:39;95566.88;;;32.86;29.53
70684;BME280;58263;48.146;11.440;2022-07-29T11:55:11;95554.03;;;32.71;29.08
70684;BME280;58263;48.146;11.440;2022-07-29T11:57:44;95572.72;;;32.44;30.49
70684;BME280;58263;48.146;11.440;2022-07-29T12:00:11;95551.59;;;32.09;30.47
70684;BME280;58263;48.146;11.440;2022-07-29T12:02:42;95546.84;;;32.09;30.87
70684;BME280;58263;48.146;11.440;2022-07-29T12:05:09;95551.28;;;32.14;31.40
70684;BME280;58263;48.146;11.440;2022-07-29T12:07:35;95550.28;;;31.99;30.86
70684;BME280;58263;48.146;11.440;2022-07-29T12:10:02;95545.41;;;31.65;30.81
70684;BME280;58263;48.146;11.440;2022-07-29T12:12:28;95546.16;;;31.62;32.40
70684;BME280;58263;48.146;11.440;2022-07-29T12:14:53;95539.50;;;31.44;31.67
70684;BME280;58263;48.146;11.440;2022-07-29T12:17:33;95544.94;;;31.37;32.64
70684;BME280;58263;48.146;11.440;2022-07-29T12:20:00;95544.38;;;31.27;32.72
70684;BME280;58263;48.146;11.440;2022-07-29T12:22:28;95535.28;;;31.27;33.01
70684;BME280;58263;48.146;11.440;2022-07-29T12:24:54;95529.44;;;31.09;33.05
70684;BME280;58263;48.146;11.440;2022-07-29T12:27:19;95534.38;;;30.99;32.87
70684;BME280;58263;48.146;11.440;2022-07-29T12:29:55;95540.69;;;30.77;33.17
70684;BME280;58263;48.146;11.440;2022-07-29T12:32:20;95535.88;;;30.74;32.45
70684;BME280;58263;48.146;11.440;2022-07-29T12:34:45;95542.47;;;30.65;32.75
70684;BME280;58263;48.146;11.440;2022-07-29T12:37:11;95533.94;;;30.55;33.30
70684;BME280;58263;48.146;11.440;2022-07-29T12:39:36;95536.00;;;30.42;34.06
70684;BME280;58263;48.146;11.440;2022-07-29T12:42:13;95534.41;;;30.21;35.11
70684;BME280;58263;48.146;11.440;2022-07-29T12:44:49;95530.25;;;30.11;34.75
70684;BME280;58263;48.146;11.440;2022-07-29T12:47:16;95537.44;;;29.96;34.58
70684;BME280;58263;48.146;11.440;2022-07-29T12:49:43;95540.78;;;29.70;34.63
70684;BME280;58263;48.146;11.440;2022-07-29T12:52:26;95539.56;;;29.51;34.82
70684;BME280;58263;48.146;11.440;2022-07-29T12:54:52;95534.94;;;29.24;35.23
70684;BME280;58263;48.146;11.440;2022-07-29T12:57:17;95536.34;;;29.17;35.05
70684;BME280;58263;48.146;11.440;2022-07-29T12:59:42;95539.03;;;29.14;35.81
70684;BME280;58263;48.146;11.440;2022-07-29T13:02:20;95532.78;;;29.01;37.03
70684;BME280;58263;48.146;11.440;2022-07-29T13:04:58;95536.22;;;28.82;36.36
70684;BME280;58263;48.146;11.440;2022-07-29T13:07:26;95539.94;;;28.74;36.68
70684;BME280;58263;48.146;11.440;2022-07-29T13:09:52;95537.94;;;28.58;37.91
70684;BME280;58263;48.146;11.440;2022-07-29T13:12:18;95540.56;;;28.39;37.77
70684;BME280;58263;48.146;11.440;2022-07-29T13:14:48;95543.56;;;28.33;38.42
70684;BME280;58263;48.146;11.440;2022-07-29T13:17:15;95540.84;;;28.21;39.23
70684;BME280;58263;48.146;11.440;2022-07-29T13:19:51;95543.88;;;28.04;39.39
70684;BME280;58263;48.146;11.440;2022-07-29T13:22:18;95544.56;;;27.88;38.42